< < Back
Terminal Aerodrome Forecast


Current Version              Previous Versions:   1  2  3  4  5  6  7  8  9  

Terminal Aerodrome Forecast

805
FTUS42 KCAE 310800 AAA
TAFCAE
TAF AMD
KCAE 310858Z 3109/0106 VRB03KT P6SM BKN080
     FM311400 08006KT P6SM BKN070
     FM311900 09007KT P6SM VCSH SCT030 BKN050
     FM010500 05005KT P6SM SCT025 BKN035=

Latest METAR

380
SAUS80 KWBC 311500 CCA
MTRCAE
METAR KCAE 311456Z 08009KT 10SM SCT120 OVC150 27/20 A3007 RMK AO2 SLP180
T02720200 52005


USA.gov is the U.S. government's official web portal to all federal, state and local government web resources and services.